createdAt,value
2022-10-10T00:00:07.969Z,9.44
2022-10-10T00:01:48.030Z,9.36
2022-10-10T00:03:11.991Z,9.38
2022-10-10T00:04:22.823Z,9.37
2022-10-10T00:07:02.434Z,9.33
2022-10-10T00:08:11.972Z,9.31
2022-10-10T00:09:23.276Z,9.26
2022-10-10T00:10:32.719Z,9.23
2022-10-10T00:12:35.635Z,9.22
2022-10-10T00:13:51.360Z,9.17
2022-10-10T00:15:01.380Z,9.17
2022-10-10T00:16:11.337Z,9.18
2022-10-10T00:17:24.015Z,9.11
2022-10-10T00:18:33.350Z,9.10
2022-10-10T00:19:45.264Z,9.05
2022-10-10T00:20:57.864Z,8.99
2022-10-10T00:22:09.848Z,8.89
2022-10-10T00:23:25.481Z,8.83
2022-10-10T00:24:41.481Z,8.84
2022-10-10T00:25:47.248Z,8.80
2022-10-10T00:26:52.182Z,8.76
2022-10-10T00:28:01.899Z,8.73
2022-10-10T00:29:11.703Z,8.74
2022-10-10T00:30:15.946Z,8.72
2022-10-10T00:31:20.423Z,8.74
2022-10-10T00:32:28.215Z,8.74
2022-10-10T00:33:32.340Z,8.75
2022-10-10T00:34:36.815Z,8.78
2022-10-10T00:35:42.512Z,8.78
2022-10-10T00:36:49.465Z,8.75
2022-10-10T00:37:54.499Z,8.76
2022-10-10T00:39:07.270Z,8.74
2022-10-10T00:40:12.556Z,8.77
2022-10-10T00:41:17.297Z,8.74
2022-10-10T00:42:26.446Z,8.73
2022-10-10T00:43:32.905Z,8.75
2022-10-10T00:44:39.629Z,8.73
2022-10-10T00:45:46.359Z,8.77
2022-10-10T00:46:54.813Z,8.76
2022-10-10T00:48:10.792Z,8.78
2022-10-10T00:49:21.076Z,8.79
2022-10-10T00:50:25.703Z,8.76
2022-10-10T00:51:30.012Z,8.77
2022-10-10T00:52:35.286Z,8.74
2022-10-10T00:54:07.695Z,8.75
2022-10-10T00:55:17.146Z,8.78
2022-10-10T00:56:30.071Z,8.76
2022-10-10T00:57:34.481Z,8.76
2022-10-10T00:58:43.704Z,8.77
2022-10-10T00:59:51.001Z,8.79
2022-10-10T01:00:56.928Z,8.81
2022-10-10T01:02:01.758Z,8.81
2022-10-10T01:03:06.068Z,8.78
2022-10-10T01:04:45.860Z,8.77
2022-10-10T01:05:51.860Z,8.75
2022-10-10T01:06:56.816Z,8.75
2022-10-10T01:08:05.972Z,8.72
2022-10-10T01:09:10.383Z,8.72
2022-10-10T01:10:19.594Z,8.75
2022-10-10T01:11:26.013Z,8.72
2022-10-10T01:13:07.493Z,8.67
2022-10-10T01:14:42.239Z,8.66
2022-10-10T01:15:58.524Z,8.65
2022-10-10T01:17:46.997Z,8.63
2022-10-10T01:19:26.629Z,8.59
2022-10-10T01:20:53.510Z,8.57
2022-10-10T01:22:26.359Z,8.57
2022-10-10T01:23:50.489Z,8.59
2022-10-10T01:25:31.683Z,8.60
2022-10-10T01:26:44.378Z,8.61
2022-10-10T01:28:13.608Z,8.62
2022-10-10T01:29:33.127Z,8.64
2022-10-10T01:30:37.190Z,8.61
2022-10-10T01:31:47.084Z,8.59
2022-10-10T01:33:18.776Z,8.59
2022-10-10T01:34:54.681Z,8.54
2022-10-10T01:36:40.705Z,8.41
2022-10-10T01:38:33.167Z,8.37
2022-10-10T01:40:08.138Z,8.36
2022-10-10T01:41:22.412Z,8.31
2022-10-10T01:42:30.941Z,8.25
2022-10-10T01:43:37.872Z,8.25
2022-10-10T01:44:47.239Z,8.22
2022-10-10T01:45:54.690Z,8.24
2022-10-10T01:46:59.778Z,8.23
2022-10-10T01:48:07.174Z,8.23
2022-10-10T01:49:11.006Z,8.25
2022-10-10T01:50:21.142Z,8.24
2022-10-10T01:52:17.265Z,8.25
2022-10-10T01:54:17.678Z,8.25
2022-10-10T01:55:55.141Z,8.21
2022-10-10T01:57:23.827Z,8.20
2022-10-10T01:58:47.148Z,8.20
2022-10-10T02:00:09.423Z,8.14
2022-10-10T02:02:59.752Z,8.10
2022-10-10T02:04:27.924Z,8.07
2022-10-10T02:06:14.051Z,8.05
2022-10-10T02:08:04.251Z,8.05
2022-10-10T02:09:20.634Z,8.05
2022-10-10T02:10:33.824Z,8.04
2022-10-10T02:11:41.593Z,7.97
2022-10-10T02:12:49.268Z,7.96
2022-10-10T02:14:06.002Z,7.95
2022-10-10T02:15:25.148Z,7.95
2022-10-10T02:16:47.386Z,7.93
2022-10-10T02:18:02.455Z,7.90
2022-10-10T02:19:15.153Z,7.88
2022-10-10T02:20:26.456Z,7.86
2022-10-10T02:21:35.660Z,7.84
2022-10-10T02:22:43.180Z,7.85
2022-10-10T02:23:52.774Z,7.81
2022-10-10T02:25:02.073Z,7.76
2022-10-10T02:26:16.644Z,7.72
2022-10-10T02:27:49.529Z,7.63
2022-10-10T02:29:16.077Z,7.58
2022-10-10T02:30:23.844Z,7.53
2022-10-10T02:31:56.816Z,7.49
2022-10-10T02:33:06.309Z,7.48
2022-10-10T02:34:25.944Z,7.43
2022-10-10T02:35:41.761Z,7.40
2022-10-10T02:37:02.673Z,7.38
2022-10-10T02:38:12.186Z,7.33
2022-10-10T02:39:31.536Z,7.34
2022-10-10T02:40:42.623Z,7.36
2022-10-10T02:41:50.868Z,7.33
2022-10-10T02:42:59.575Z,7.33
2022-10-10T02:44:04.745Z,7.31
2022-10-10T02:45:09.312Z,7.29
2022-10-10T02:46:15.020Z,7.31
2022-10-10T02:47:18.969Z,7.31
2022-10-10T02:48:22.647Z,7.34
2022-10-10T02:49:35.166Z,7.35
2022-10-10T02:50:38.745Z,7.36
2022-10-10T02:51:42.708Z,7.39
2022-10-10T02:52:50.275Z,7.42
2022-10-10T02:53:54.264Z,7.41
2022-10-10T02:54:59.918Z,7.43
2022-10-10T02:56:08.329Z,7.44
2022-10-10T02:57:17.011Z,7.46
2022-10-10T02:58:20.556Z,7.48
2022-10-10T02:59:25.831Z,7.50
2022-10-10T03:00:30.555Z,7.51
2022-10-10T03:01:34.349Z,7.56
2022-10-10T03:02:50.133Z,7.56
2022-10-10T03:03:54.287Z,7.53
2022-10-10T03:05:01.989Z,7.49
2022-10-10T03:06:06.496Z,7.45
2022-10-10T03:07:10.305Z,7.46
2022-10-10T03:08:14.328Z,7.46
2022-10-10T03:09:18.104Z,7.47
2022-10-10T03:10:21.704Z,7.49
2022-10-10T03:11:25.365Z,7.50
2022-10-10T03:12:29.210Z,7.52
2022-10-10T03:13:33.361Z,7.54
2022-10-10T03:14:37.085Z,7.55
2022-10-10T03:15:40.649Z,7.59
2022-10-10T03:16:49.461Z,7.58
2022-10-10T03:17:53.318Z,7.56
2022-10-10T03:18:57.177Z,7.60
2022-10-10T03:20:00.865Z,7.60
2022-10-10T03:21:05.049Z,7.56
2022-10-10T03:22:08.747Z,7.55
2022-10-10T03:23:13.892Z,7.43
2022-10-10T03:24:17.768Z,7.44
2022-10-10T03:25:21.325Z,7.36
2022-10-10T03:26:24.848Z,7.27
2022-10-10T03:27:28.459Z,7.28
2022-10-10T03:28:32.587Z,7.21
2022-10-10T03:29:40.416Z,7.19
2022-10-10T03:30:44.541Z,7.18
2022-10-10T03:31:48.540Z,7.16
2022-10-10T03:32:52.189Z,7.09
2022-10-10T03:33:56.788Z,7.02
2022-10-10T03:35:00.496Z,6.97
2022-10-10T03:36:04.916Z,6.98
2022-10-10T03:37:08.445Z,6.96
2022-10-10T03:38:16.179Z,6.96
2022-10-10T03:39:19.663Z,6.91
2022-10-10T03:40:24.546Z,6.91
2022-10-10T03:41:28.687Z,6.93
2022-10-10T03:42:32.532Z,6.82
2022-10-10T03:43:36.442Z,6.84
2022-10-10T03:44:40.035Z,6.84
2022-10-10T03:45:47.873Z,6.86
2022-10-10T03:46:51.830Z,6.86
2022-10-10T03:47:55.555Z,6.85
2022-10-10T03:48:59.057Z,6.86
2022-10-10T03:50:02.943Z,6.83
2022-10-10T03:51:07.601Z,6.82
2022-10-10T03:52:11.445Z,6.80
2022-10-10T03:53:15.194Z,6.77
2022-10-10T03:54:18.914Z,6.72
2022-10-10T03:55:22.601Z,6.72
2022-10-10T03:56:28.388Z,6.73
2022-10-10T03:57:32.693Z,6.73
2022-10-10T03:58:36.998Z,6.69
2022-10-10T03:59:41.737Z,6.69
2022-10-10T04:00:45.580Z,6.68
2022-10-10T04:02:00.591Z,6.64
2022-10-10T04:03:08.574Z,6.60
2022-10-10T04:04:22.535Z,6.60
2022-10-10T04:05:30.836Z,6.58
2022-10-10T04:06:38.729Z,6.55
2022-10-10T04:08:01.104Z,6.55
2022-10-10T04:09:09.902Z,6.52
2022-10-10T04:10:18.638Z,6.54
2022-10-10T04:11:24.793Z,6.52
2022-10-10T04:12:31.478Z,6.53
2022-10-10T04:13:38.372Z,6.48
2022-10-10T04:14:43.852Z,6.49
2022-10-10T04:15:56.818Z,6.52
2022-10-10T04:17:03.333Z,6.50
2022-10-10T04:18:09.887Z,6.48
2022-10-10T04:19:28.898Z,6.48
2022-10-10T04:20:33.235Z,6.50
2022-10-10T04:21:50.601Z,6.53
2022-10-10T04:22:59.721Z,6.53
2022-10-10T04:24:04.358Z,6.52
2022-10-10T04:25:21.191Z,6.53
2022-10-10T04:26:28.682Z,6.59
2022-10-10T04:27:41.646Z,6.57
2022-10-10T04:28:50.508Z,6.58
2022-10-10T04:29:54.696Z,6.57
2022-10-10T04:31:04.027Z,6.59
2022-10-10T04:32:07.710Z,6.58
2022-10-10T04:33:12.900Z,6.63
2022-10-10T04:34:16.648Z,6.63
2022-10-10T04:35:23.710Z,6.61
2022-10-10T04:36:30.852Z,6.60
2022-10-10T04:37:47.764Z,6.62
2022-10-10T04:38:53.928Z,6.64
2022-10-10T04:40:04.706Z,6.65
2022-10-10T04:41:15.915Z,6.69
2022-10-10T04:42:22.843Z,6.68
2022-10-10T04:43:29.780Z,6.67
2022-10-10T04:44:59.018Z,6.71
2022-10-10T04:46:02.750Z,6.72
2022-10-10T04:47:08.099Z,6.71
2022-10-10T04:48:12.216Z,6.70
2022-10-10T04:49:18.654Z,6.71
2022-10-10T04:50:26.841Z,6.74
2022-10-10T04:51:33.093Z,6.75
2022-10-10T04:52:43.129Z,6.72
2022-10-10T04:53:50.476Z,6.70
2022-10-10T04:54:54.356Z,6.74
2022-10-10T04:55:58.150Z,6.71
2022-10-10T04:57:01.838Z,6.69
2022-10-10T04:58:05.384Z,6.66
2022-10-10T04:59:11.347Z,6.67
2022-10-10T05:00:17.033Z,6.67
2022-10-10T05:01:25.669Z,6.60
2022-10-10T05:02:33.157Z,6.59
2022-10-10T05:03:40.749Z,6.59
2022-10-10T05:04:53.064Z,6.55
2022-10-10T05:05:58.608Z,6.52
2022-10-10T05:07:02.343Z,6.52
2022-10-10T05:08:06.169Z,6.53
2022-10-10T05:09:10.049Z,6.53
2022-10-10T05:10:14.478Z,6.54
2022-10-10T05:11:19.024Z,6.50
2022-10-10T05:12:23.967Z,6.51
2022-10-10T05:13:28.015Z,6.51
2022-10-10T05:14:31.967Z,6.45
2022-10-10T05:15:38.033Z,6.41
2022-10-10T05:16:41.908Z,6.36
2022-10-10T05:17:45.593Z,6.35
2022-10-10T05:18:49.193Z,6.35
2022-10-10T05:19:53.858Z,6.35
2022-10-10T05:21:02.664Z,6.32
2022-10-10T05:22:07.466Z,6.31
2022-10-10T05:23:11.427Z,6.33
2022-10-10T05:24:15.117Z,6.35
2022-10-10T05:25:18.732Z,6.38
2022-10-10T05:26:22.616Z,6.39
2022-10-10T05:27:28.287Z,6.35
2022-10-10T05:28:35.467Z,6.36
2022-10-10T05:29:45.240Z,6.37
2022-10-10T05:30:51.545Z,6.36
2022-10-10T05:31:57.828Z,6.31
2022-10-10T05:33:01.708Z,6.34
2022-10-10T05:34:07.029Z,6.30
2022-10-10T05:35:12.389Z,6.33
2022-10-10T05:36:17.949Z,6.30
2022-10-10T05:37:22.044Z,6.23
2022-10-10T05:38:26.279Z,6.25
2022-10-10T05:39:35.875Z,6.28
2022-10-10T05:40:43.649Z,6.27
2022-10-10T05:41:47.729Z,6.29
2022-10-10T05:42:51.721Z,6.29
2022-10-10T05:43:55.727Z,6.31
2022-10-10T05:44:59.690Z,6.31
2022-10-10T05:46:04.178Z,6.32
2022-10-10T05:47:08.527Z,6.33
2022-10-10T05:48:12.624Z,6.39
2022-10-10T05:49:16.594Z,6.39
2022-10-10T05:50:36.564Z,6.43
2022-10-10T05:51:40.273Z,6.48
2022-10-10T05:52:44.163Z,6.46
2022-10-10T05:53:48.631Z,6.51
2022-10-10T05:54:52.951Z,6.56
2022-10-10T05:55:57.086Z,6.59
2022-10-10T05:57:03.702Z,6.61
2022-10-10T05:58:07.780Z,6.60
2022-10-10T05:59:11.850Z,6.62
2022-10-10T06:00:15.846Z,6.67
2022-10-10T06:01:19.630Z,6.70
2022-10-10T06:02:23.509Z,6.74
2022-10-10T06:03:27.136Z,6.76
2022-10-10T06:04:31.069Z,6.82
2022-10-10T06:05:37.029Z,6.83
2022-10-10T06:06:42.174Z,6.84
2022-10-10T06:08:04.779Z,6.85
2022-10-10T06:09:11.353Z,6.82
2022-10-10T06:10:15.045Z,6.80
2022-10-10T06:11:20.875Z,6.84
2022-10-10T06:12:25.369Z,6.80
2022-10-10T06:13:30.497Z,6.84
2022-10-10T06:14:34.429Z,6.84
2022-10-10T06:15:38.441Z,6.88
2022-10-10T06:16:43.579Z,6.94
2022-10-10T06:17:47.476Z,6.95
2022-10-10T06:18:57.178Z,6.98
2022-10-10T06:20:12.160Z,7.02
2022-10-10T06:21:20.447Z,7.00
2022-10-10T06:22:26.365Z,7.03
2022-10-10T06:23:30.202Z,7.06
2022-10-10T06:24:34.547Z,7.05
2022-10-10T06:25:41.325Z,7.05
2022-10-10T06:26:48.954Z,7.06
2022-10-10T06:28:02.269Z,7.07
2022-10-10T06:29:08.531Z,7.09
2022-10-10T06:30:17.270Z,7.14
2022-10-10T06:31:34.711Z,7.12
2022-10-10T06:32:43.837Z,7.12
2022-10-10T06:33:54.858Z,7.19
2022-10-10T06:35:07.002Z,7.21
2022-10-10T06:36:14.595Z,7.25
2022-10-10T06:37:19.714Z,7.23
2022-10-10T06:38:30.928Z,7.25
2022-10-10T06:39:38.405Z,7.29
2022-10-10T06:40:44.225Z,7.34
2022-10-10T06:41:52.973Z,7.33
2022-10-10T06:42:56.817Z,7.41
2022-10-10T06:44:01.058Z,7.46
2022-10-10T06:45:06.712Z,7.54
2022-10-10T06:46:13.869Z,7.53
2022-10-10T06:47:18.280Z,7.57
2022-10-10T06:48:23.532Z,7.65
2022-10-10T06:49:30.878Z,7.64
2022-10-10T06:50:39.272Z,7.69
2022-10-10T06:51:46.796Z,7.64
2022-10-10T06:52:51.522Z,7.70
2022-10-10T06:54:01.260Z,7.75
2022-10-10T06:55:07.927Z,7.79
2022-10-10T06:56:27.382Z,7.82
2022-10-10T06:57:31.479Z,7.88
2022-10-10T06:58:37.024Z,7.90
2022-10-10T06:59:41.055Z,7.97
2022-10-10T07:00:53.968Z,8.03
2022-10-10T07:01:57.858Z,8.07
2022-10-10T07:03:01.768Z,8.14
2022-10-10T07:04:07.530Z,8.16
2022-10-10T07:05:17.170Z,8.27
2022-10-10T07:06:21.392Z,8.36
2022-10-10T07:07:27.091Z,8.45
2022-10-10T07:08:34.874Z,8.52
2022-10-10T07:09:39.499Z,8.64
2022-10-10T07:10:44.644Z,8.77
2022-10-10T07:11:49.013Z,8.91
2022-10-10T07:12:53.306Z,9.05
2022-10-10T07:13:57.128Z,9.27
2022-10-10T07:15:00.951Z,9.47
2022-10-10T07:16:06.460Z,9.74
2022-10-10T07:17:11.987Z,10.04
2022-10-10T07:18:30.341Z,10.51
2022-10-10T07:19:37.578Z,11.31
2022-10-10T07:20:43.909Z,12.00
2022-10-10T07:21:47.608Z,12.92
2022-10-10T07:22:51.544Z,13.70
2022-10-10T07:23:56.283Z,14.53
2022-10-10T07:25:00.845Z,15.32
2022-10-10T07:26:14.485Z,15.98
2022-10-10T07:27:18.162Z,16.63
2022-10-10T07:28:22.041Z,17.02
2022-10-10T07:29:30.690Z,17.77
2022-10-10T07:30:41.177Z,18.41
2022-10-10T07:31:45.478Z,18.90
2022-10-10T07:32:50.612Z,19.26
2022-10-10T07:33:55.934Z,19.66
2022-10-10T07:35:00.813Z,20.09
2022-10-10T07:36:07.923Z,20.33
2022-10-10T07:37:15.622Z,20.42
2022-10-10T07:38:24.907Z,20.73
2022-10-10T07:39:30.450Z,20.75
2022-10-10T07:40:36.609Z,20.92
2022-10-10T07:41:40.964Z,20.86
2022-10-10T07:42:46.699Z,21.15
2022-10-10T07:43:59.254Z,21.39
2022-10-10T07:45:05.835Z,21.45
2022-10-10T07:46:20.038Z,21.70
2022-10-10T07:47:27.820Z,22.00
2022-10-10T07:48:34.276Z,22.60
2022-10-10T07:49:47.988Z,22.87
2022-10-10T07:51:09.621Z,23.31
2022-10-10T07:52:27.952Z,23.53
2022-10-10T07:53:33.082Z,23.92
2022-10-10T07:54:37.631Z,24.23
2022-10-10T07:55:43.656Z,24.56
2022-10-10T07:56:47.790Z,25.00
2022-10-10T07:57:59.602Z,25.27
2022-10-10T07:59:08.031Z,25.52
2022-10-10T08:00:15.438Z,25.76
2022-10-10T08:01:20.245Z,25.93
2022-10-10T08:02:29.558Z,25.94
2022-10-10T08:03:41.648Z,26.17
2022-10-10T08:04:46.104Z,26.47
2022-10-10T08:06:05.323Z,26.71
2022-10-10T08:07:09.162Z,26.49
2022-10-10T08:08:18.882Z,26.36
2022-10-10T08:09:27.609Z,26.65
2022-10-10T08:10:38.423Z,26.85
2022-10-10T08:11:42.771Z,27.13
2022-10-10T08:12:56.044Z,27.53
2022-10-10T08:14:01.780Z,27.88
2022-10-10T08:16:24.061Z,28.21
2022-10-10T08:17:28.453Z,28.01
2022-10-10T08:18:37.420Z,28.27
2022-10-10T08:19:56.464Z,28.06
2022-10-10T08:21:13.167Z,28.71
2022-10-10T08:22:29.092Z,28.75
2022-10-10T08:23:45.024Z,29.17
2022-10-10T08:24:49.825Z,29.18
2022-10-10T08:25:54.902Z,29.36
2022-10-10T08:26:58.836Z,29.40
2022-10-10T08:28:03.366Z,29.03
2022-10-10T08:29:08.739Z,28.63
2022-10-10T08:30:13.868Z,28.76
2022-10-10T08:31:21.400Z,28.79
2022-10-10T08:32:25.671Z,28.83
2022-10-10T08:33:33.593Z,29.08
2022-10-10T08:34:50.778Z,29.02
2022-10-10T08:35:55.423Z,28.99
2022-10-10T08:36:59.292Z,29.18
2022-10-10T08:38:05.335Z,29.27
2022-10-10T08:39:32.782Z,29.39
2022-10-10T08:40:53.178Z,29.04
2022-10-10T08:42:15.918Z,29.04
2022-10-10T08:43:47.144Z,29.27
2022-10-10T08:45:01.014Z,29.28
2022-10-10T08:46:29.835Z,29.14
2022-10-10T08:47:56.081Z,28.94
2022-10-10T08:49:14.345Z,28.57
2022-10-10T08:50:54.721Z,28.27
2022-10-10T08:52:41.104Z,27.86
2022-10-10T08:53:53.777Z,27.72
2022-10-10T08:55:02.489Z,27.67
2022-10-10T08:56:19.073Z,27.64
2022-10-10T08:57:33.896Z,27.40
2022-10-10T08:58:44.532Z,27.72
2022-10-10T08:59:57.923Z,27.94
2022-10-10T09:01:17.256Z,28.11
2022-10-10T09:02:55.796Z,28.17
2022-10-10T09:04:18.277Z,28.45
2022-10-10T09:05:40.668Z,28.47
2022-10-10T09:07:25.191Z,28.34
2022-10-10T09:09:43.660Z,28.70
2022-10-10T09:11:23.028Z,28.91
2022-10-10T09:13:13.878Z,28.58
2022-10-10T09:14:36.205Z,28.06
2022-10-10T09:15:57.061Z,27.09
2022-10-10T09:17:29.954Z,26.12
2022-10-10T09:19:24.232Z,25.18
2022-10-10T09:21:17.089Z,24.66
2022-10-10T09:22:41.202Z,24.09
2022-10-10T09:24:28.407Z,23.09
2022-10-10T09:25:49.707Z,22.52
2022-10-10T09:27:10.134Z,21.81
2022-10-10T09:28:34.374Z,21.32
2022-10-10T09:30:02.567Z,20.80
2022-10-10T09:31:22.417Z,20.53
2022-10-10T09:33:07.983Z,20.03
2022-10-10T09:34:22.828Z,19.72
2022-10-10T09:35:39.882Z,19.58
2022-10-10T09:36:47.573Z,19.40
2022-10-10T09:38:32.326Z,18.94
2022-10-10T09:39:53.080Z,18.66
2022-10-10T09:41:07.406Z,18.37
2022-10-10T09:42:20.042Z,18.21
2022-10-10T09:43:37.140Z,18.06
2022-10-10T09:44:45.596Z,17.80
2022-10-10T09:45:57.420Z,17.59
2022-10-10T09:47:01.532Z,17.48
2022-10-10T09:48:05.841Z,17.16
2022-10-10T09:49:15.918Z,16.99
2022-10-10T09:50:23.241Z,16.96
2022-10-10T09:51:27.056Z,16.94
2022-10-10T09:52:32.736Z,16.86
2022-10-10T09:53:36.496Z,16.81
2022-10-10T09:54:41.368Z,16.71
2022-10-10T09:55:49.782Z,16.64
2022-10-10T09:57:01.190Z,16.62
2022-10-10T09:58:36.974Z,16.55
2022-10-10T09:59:45.506Z,16.49
2022-10-10T10:00:54.368Z,16.45
2022-10-10T10:02:30.980Z,16.46
2022-10-10T10:03:36.589Z,16.45
2022-10-10T10:04:45.285Z,16.39
2022-10-10T10:06:23.055Z,16.30
2022-10-10T10:07:38.337Z,16.28
2022-10-10T10:08:47.967Z,16.24
2022-10-10T10:10:02.234Z,16.25
2022-10-10T10:11:42.087Z,16.22
2022-10-10T10:12:47.573Z,16.18
2022-10-10T10:14:02.896Z,16.17
2022-10-10T10:15:23.999Z,16.14
2022-10-10T10:16:39.613Z,16.06
2022-10-10T10:18:05.025Z,16.01
2022-10-10T10:19:39.279Z,15.92
2022-10-10T10:20:50.152Z,15.94
2022-10-10T10:21:55.948Z,15.91
2022-10-10T10:23:04.808Z,15.96
2022-10-10T10:24:39.476Z,16.00
2022-10-10T10:25:46.987Z,15.99
2022-10-10T10:26:52.169Z,15.99
2022-10-10T10:28:15.267Z,16.02
2022-10-10T10:29:32.469Z,16.02
2022-10-10T10:30:47.820Z,16.08
2022-10-10T10:32:24.605Z,16.15
2022-10-10T10:34:00.157Z,16.13
2022-10-10T10:35:31.173Z,16.17
2022-10-10T10:37:03.376Z,16.21
2022-10-10T10:38:34.347Z,16.22
2022-10-10T10:40:18.563Z,16.23
2022-10-10T10:41:37.809Z,16.21
2022-10-10T10:43:38.217Z,16.24
2022-10-10T10:45:25.293Z,16.25
2022-10-10T10:47:03.058Z,16.22
2022-10-10T10:48:37.524Z,16.27
2022-10-10T10:50:31.641Z,16.37
2022-10-10T10:52:12.325Z,16.41
2022-10-10T10:53:40.227Z,16.44
2022-10-10T10:55:01.122Z,16.46
2022-10-10T10:56:48.915Z,16.46
2022-10-10T11:00:21.766Z,16.34
2022-10-10T11:01:57.205Z,16.36
2022-10-10T11:05:16.629Z,16.40
2022-10-10T11:05:45.362Z,16.46
2022-10-10T11:07:20.707Z,16.46
2022-10-10T11:09:31.004Z,16.53
2022-10-10T11:11:10.723Z,16.47
2022-10-10T11:12:45.051Z,16.53
2022-10-10T11:14:48.393Z,16.48
2022-10-10T11:18:13.879Z,16.48
2022-10-10T11:19:57.206Z,16.51
2022-10-10T11:21:12.740Z,16.54
2022-10-10T11:22:22.473Z,16.53
2022-10-10T11:23:40.400Z,16.58
2022-10-10T11:25:06.841Z,16.64
2022-10-10T11:26:37.585Z,16.65
2022-10-10T11:27:50.731Z,16.69
2022-10-10T11:29:13.835Z,16.71
2022-10-10T11:30:23.882Z,16.75
2022-10-10T11:31:37.859Z,16.75
2022-10-10T11:32:54.034Z,16.71
2022-10-10T11:34:07.905Z,16.76
2022-10-10T11:35:46.561Z,16.78
2022-10-10T11:36:56.288Z,16.80
2022-10-10T11:38:22.629Z,16.83
2022-10-10T11:39:57.551Z,16.89
2022-10-10T11:41:25.547Z,16.92
2022-10-10T11:42:50.679Z,16.91
2022-10-10T11:44:04.738Z,16.95
2022-10-10T11:45:28.746Z,17.00
2022-10-10T11:46:42.891Z,17.01
2022-10-10T11:48:29.507Z,17.02
2022-10-10T11:49:46.747Z,17.12
2022-10-10T11:51:16.091Z,17.17
2022-10-10T11:52:57.711Z,17.23
2022-10-10T11:54:10.070Z,17.24
2022-10-10T11:55:31.629Z,17.32
2022-10-10T11:56:46.467Z,17.36
2022-10-10T11:58:05.110Z,17.41
2022-10-10T11:59:28.052Z,17.45
2022-10-10T12:00:46.273Z,17.46
2022-10-10T12:03:09.985Z,17.45
2022-10-10T12:04:16.207Z,17.47
2022-10-10T12:05:28.068Z,17.48
2022-10-10T12:06:32.928Z,17.50
2022-10-10T12:08:17.650Z,17.52
2022-10-10T12:09:43.600Z,17.54
2022-10-10T12:11:06.611Z,17.43
2022-10-10T12:12:31.531Z,17.43
2022-10-10T12:13:42.081Z,17.42
2022-10-10T12:15:14.211Z,17.45
2022-10-10T12:16:37.843Z,17.46
2022-10-10T12:17:57.244Z,17.51
2022-10-10T12:19:17.938Z,17.58
2022-10-10T12:20:37.857Z,17.59
2022-10-10T12:22:01.888Z,17.62
2022-10-10T12:23:15.402Z,17.64
2022-10-10T12:24:20.849Z,17.64
2022-10-10T12:25:47.789Z,17.59
2022-10-10T12:27:07.207Z,17.57
2022-10-10T12:28:18.615Z,17.58
2022-10-10T12:30:09.570Z,17.60
2022-10-10T12:31:13.428Z,17.61
2022-10-10T12:32:19.648Z,17.64
2022-10-10T12:33:33.918Z,17.62
2022-10-10T12:34:49.758Z,17.67
2022-10-10T12:36:20.090Z,17.70
2022-10-10T12:37:40.506Z,17.75
2022-10-10T12:39:09.779Z,17.81
2022-10-10T12:40:16.772Z,17.77
2022-10-10T12:41:53.799Z,17.85
2022-10-10T12:43:07.682Z,17.86
2022-10-10T12:44:50.611Z,17.85
2022-10-10T12:48:04.400Z,17.92
2022-10-10T12:49:29.636Z,17.95
2022-10-10T12:50:58.101Z,18.01
2022-10-10T12:52:14.009Z,18.09
2022-10-10T12:53:28.072Z,18.13
2022-10-10T12:54:49.698Z,18.13
2022-10-10T12:56:03.226Z,18.11
2022-10-10T12:57:37.571Z,18.14
2022-10-10T12:58:53.667Z,18.09
2022-10-10T13:00:26.997Z,18.06
2022-10-10T13:01:48.841Z,18.04
2022-10-10T13:03:05.150Z,18.02
2022-10-10T13:04:18.169Z,18.02
2022-10-10T13:05:31.948Z,18.09
2022-10-10T13:06:41.610Z,18.12
2022-10-10T13:07:48.318Z,18.14
2022-10-10T13:08:55.761Z,18.16
2022-10-10T13:10:24.397Z,18.20
2022-10-10T13:11:28.485Z,18.21
2022-10-10T13:12:35.335Z,18.25
2022-10-10T13:13:58.663Z,18.33
2022-10-10T13:15:02.855Z,18.37
2022-10-10T13:16:17.619Z,18.38
2022-10-10T13:17:40.454Z,18.36
2022-10-10T13:18:56.664Z,18.33
2022-10-10T13:20:05.869Z,18.37
2022-10-10T13:21:30.764Z,18.41
2022-10-10T13:22:37.280Z,18.50
2022-10-10T13:25:12.761Z,18.56
2022-10-10T13:26:31.349Z,18.52
2022-10-10T13:27:35.756Z,18.55
2022-10-10T13:28:45.605Z,18.57
2022-10-10T13:29:53.950Z,18.54
2022-10-10T13:31:16.569Z,18.51
2022-10-10T13:32:29.439Z,18.48
2022-10-10T13:33:34.513Z,18.49
2022-10-10T13:34:43.794Z,18.49
2022-10-10T13:35:50.696Z,18.49
2022-10-10T13:36:59.011Z,18.52
2022-10-10T13:38:03.435Z,18.53
2022-10-10T13:39:07.615Z,18.54
2022-10-10T13:40:17.201Z,18.54
2022-10-10T13:41:23.602Z,18.50
2022-10-10T13:42:41.029Z,18.48
2022-10-10T13:43:45.564Z,18.49
2022-10-10T13:44:54.209Z,18.50
2022-10-10T13:46:03.171Z,18.46
2022-10-10T13:47:46.482Z,18.50
2022-10-10T13:48:53.301Z,18.49
2022-10-10T13:49:57.866Z,18.53
2022-10-10T13:51:05.598Z,18.56
2022-10-10T13:52:24.197Z,18.57
2022-10-10T13:53:29.028Z,18.53
2022-10-10T13:54:49.289Z,18.53
2022-10-10T13:56:24.690Z,18.56
2022-10-10T13:57:31.404Z,18.54
2022-10-10T13:58:46.053Z,18.58
2022-10-10T14:00:20.379Z,18.60
2022-10-10T14:01:36.196Z,18.65
2022-10-10T14:02:44.633Z,18.67
2022-10-10T14:03:52.202Z,18.72
2022-10-10T14:05:01.005Z,18.71
2022-10-10T14:06:10.539Z,18.76
2022-10-10T14:09:39.249Z,18.74
2022-10-10T14:10:43.230Z,18.74
2022-10-10T14:11:53.609Z,18.79
2022-10-10T14:13:02.957Z,18.80
2022-10-10T14:14:20.517Z,18.82
2022-10-10T14:15:43.149Z,18.82
2022-10-10T14:17:08.640Z,18.82
2022-10-10T14:18:23.303Z,18.84
2022-10-10T14:19:29.106Z,18.84
2022-10-10T14:20:33.018Z,18.86
2022-10-10T14:21:37.657Z,18.88
2022-10-10T14:22:46.963Z,18.90
2022-10-10T14:23:51.965Z,18.93
2022-10-10T14:25:00.925Z,18.89
2022-10-10T14:26:18.216Z,18.88
2022-10-10T14:27:27.829Z,18.89
2022-10-10T14:28:37.263Z,18.90
2022-10-10T14:29:45.301Z,18.89
2022-10-10T14:30:53.707Z,18.90
2022-10-10T14:32:07.184Z,18.87
2022-10-10T14:33:18.129Z,18.88
2022-10-10T14:34:22.031Z,18.86
2022-10-10T14:35:35.732Z,18.85
2022-10-10T14:36:51.185Z,18.81
2022-10-10T14:38:01.111Z,18.81
2022-10-10T14:39:13.661Z,18.75
2022-10-10T14:40:32.524Z,18.77
2022-10-10T14:41:38.297Z,18.76
2022-10-10T14:42:42.676Z,18.77
2022-10-10T14:43:47.229Z,18.71
2022-10-10T14:44:51.175Z,18.73
2022-10-10T14:45:58.356Z,18.71
2022-10-10T14:47:07.825Z,18.72
2022-10-10T14:48:12.634Z,18.71
2022-10-10T14:49:23.823Z,18.72
2022-10-10T14:50:48.140Z,18.64
2022-10-10T14:51:53.607Z,18.64
2022-10-10T14:52:57.664Z,18.64
2022-10-10T14:54:13.906Z,18.65
2022-10-10T14:55:18.135Z,18.67
2022-10-10T14:56:21.545Z,18.68
2022-10-10T14:57:25.158Z,18.69
2022-10-10T14:58:29.680Z,18.69
2022-10-10T14:59:49.686Z,18.67
2022-10-10T15:00:54.418Z,18.64
2022-10-10T15:01:58.433Z,18.64
2022-10-10T15:03:02.645Z,18.63
2022-10-10T15:04:06.403Z,18.64
2022-10-10T15:05:17.451Z,18.64
2022-10-10T15:06:27.182Z,18.62
2022-10-10T15:07:30.628Z,18.58
2022-10-10T15:08:34.218Z,18.58
2022-10-10T15:09:42.978Z,18.56
2022-10-10T15:10:51.536Z,18.54
2022-10-10T15:11:55.249Z,18.50
2022-10-10T15:13:01.376Z,18.49
2022-10-10T15:14:06.410Z,18.48
2022-10-10T15:15:12.828Z,18.43
2022-10-10T15:16:16.349Z,18.46
2022-10-10T15:17:22.186Z,18.45
2022-10-10T15:18:53.242Z,18.45
2022-10-10T15:19:54.962Z,18.42
2022-10-10T15:21:00.097Z,18.39
2022-10-10T15:22:04.101Z,18.38
2022-10-10T15:23:12.286Z,18.33
2022-10-10T15:24:19.052Z,18.34
2022-10-10T15:25:29.633Z,18.31
2022-10-10T15:26:42.824Z,18.32
2022-10-10T15:27:52.740Z,18.31
2022-10-10T15:28:59.780Z,18.31
2022-10-10T15:30:09.885Z,18.30
2022-10-10T15:31:16.595Z,18.29
2022-10-10T15:32:23.112Z,18.25
2022-10-10T15:33:27.597Z,18.25
2022-10-10T15:34:31.198Z,18.23
2022-10-10T15:35:56.927Z,18.20
2022-10-10T15:37:17.262Z,18.18
2022-10-10T15:38:30.138Z,18.16
2022-10-10T15:41:13.328Z,18.11
2022-10-10T15:42:29.959Z,18.07
2022-10-10T15:43:54.517Z,18.05
2022-10-10T15:45:36.967Z,18.00
2022-10-10T15:46:49.520Z,17.96
2022-10-10T15:47:59.391Z,17.93
2022-10-10T15:49:03.668Z,17.91
2022-10-10T15:50:30.565Z,17.85
2022-10-10T15:51:41.567Z,17.84
2022-10-10T15:52:47.809Z,17.83
2022-10-10T15:53:52.758Z,17.81
2022-10-10T15:55:08.620Z,17.78
2022-10-10T15:56:19.964Z,17.76
2022-10-10T15:57:24.950Z,17.72
2022-10-10T15:58:34.930Z,17.68
2022-10-10T15:59:41.958Z,17.65
2022-10-10T16:00:49.556Z,17.62
2022-10-10T16:01:56.180Z,17.60
2022-10-10T16:03:03.128Z,17.58
2022-10-10T16:04:07.113Z,17.54
2022-10-10T16:05:19.010Z,17.52
2022-10-10T16:06:33.340Z,17.47
2022-10-10T16:08:04.290Z,17.43
2022-10-10T16:09:46.008Z,17.35
2022-10-10T16:10:54.506Z,17.33
2022-10-10T16:12:41.589Z,17.28
2022-10-10T16:14:15.921Z,17.22
2022-10-10T16:15:29.915Z,17.19